createdAt,value
2022-08-25T00:00:14.982Z,17.45
2022-08-25T00:01:14.992Z,17.44
2022-08-25T00:02:15.001Z,17.41
2022-08-25T00:03:14.971Z,17.39
2022-08-25T00:04:14.959Z,17.39
2022-08-25T00:05:14.991Z,17.38
2022-08-25T00:06:14.943Z,17.34
2022-08-25T00:07:18.696Z,17.34
2022-08-25T00:08:14.899Z,17.33
2022-08-25T00:09:14.920Z,17.34
2022-08-25T00:10:14.867Z,17.31
2022-08-25T00:11:14.886Z,17.34
2022-08-25T00:12:14.865Z,17.36
2022-08-25T00:13:14.865Z,17.34
2022-08-25T00:14:14.837Z,17.38
2022-08-25T00:15:14.865Z,17.34
2022-08-25T00:16:14.901Z,17.34
2022-08-25T00:17:14.820Z,17.34
2022-08-25T00:18:19.708Z,17.36
2022-08-25T00:19:14.807Z,17.36
2022-08-25T00:20:14.796Z,17.34
2022-08-25T00:21:14.830Z,17.33
2022-08-25T00:22:14.771Z,17.33
2022-08-25T00:23:14.752Z,17.33
2022-08-25T00:24:14.749Z,17.30
2022-08-25T00:25:14.770Z,17.26
2022-08-25T00:26:14.753Z,17.27
2022-08-25T00:27:14.759Z,17.30
2022-08-25T00:28:14.722Z,17.29
2022-08-25T00:29:14.729Z,17.24
2022-08-25T00:30:16.092Z,17.24
2022-08-25T00:31:14.742Z,17.20
2022-08-25T00:32:14.694Z,17.22
2022-08-25T00:33:14.677Z,17.16
2022-08-25T00:34:14.645Z,17.16
2022-08-25T00:35:14.641Z,17.14
2022-08-25T00:36:14.633Z,17.09
2022-08-25T00:37:14.662Z,17.05
2022-08-25T00:38:14.604Z,17.02
2022-08-25T00:39:14.593Z,16.99
2022-08-25T00:40:14.698Z,16.94
2022-08-25T00:41:14.594Z,16.91
2022-08-25T00:42:16.093Z,16.91
2022-08-25T00:43:14.594Z,16.91
2022-08-25T00:44:14.534Z,16.91
2022-08-25T00:45:14.533Z,16.90
2022-08-25T00:46:14.600Z,16.87
2022-08-25T00:47:14.530Z,16.89
2022-08-25T00:48:14.498Z,16.89
2022-08-25T00:49:17.961Z,16.87
2022-08-25T00:50:14.494Z,16.89
2022-08-25T00:51:14.478Z,16.89
2022-08-25T00:52:14.468Z,16.89
2022-08-25T00:53:14.457Z,16.89
2022-08-25T00:54:14.459Z,16.89
2022-08-25T00:55:14.458Z,16.89
2022-08-25T00:56:14.429Z,16.86
2022-08-25T00:57:14.425Z,16.83
2022-08-25T00:58:14.407Z,16.78
2022-08-25T00:59:14.398Z,16.76
2022-08-25T01:00:14.366Z,16.75
2022-08-25T01:01:14.401Z,16.72
2022-08-25T01:02:14.417Z,16.72
2022-08-25T01:03:14.360Z,16.69
2022-08-25T01:04:14.338Z,16.68
2022-08-25T01:05:14.333Z,16.64
2022-08-25T01:06:14.307Z,16.60
2022-08-25T01:07:15.489Z,16.58
2022-08-25T01:08:16.423Z,16.58
2022-08-25T01:09:14.296Z,16.60
2022-08-25T01:10:14.283Z,16.58
2022-08-25T01:11:14.263Z,16.57
2022-08-25T01:12:14.287Z,16.53
2022-08-25T01:13:16.250Z,16.53
2022-08-25T01:14:14.234Z,16.49
2022-08-25T01:15:14.224Z,16.47
2022-08-25T01:16:14.313Z,16.46
2022-08-25T01:17:14.218Z,16.41
2022-08-25T01:18:14.210Z,16.36
2022-08-25T01:19:15.487Z,16.31
2022-08-25T01:20:14.188Z,16.26
2022-08-25T01:21:14.171Z,16.21
2022-08-25T01:22:14.154Z,16.16
2022-08-25T01:23:14.194Z,16.15
2022-08-25T01:24:14.147Z,16.13
2022-08-25T01:25:14.124Z,16.15
2022-08-25T01:26:14.098Z,16.13
2022-08-25T01:27:14.111Z,16.12
2022-08-25T01:28:14.086Z,16.12
2022-08-25T01:29:14.095Z,16.09
2022-08-25T01:30:14.055Z,16.09
2022-08-25T01:31:23.997Z,16.08
2022-08-25T01:32:14.044Z,16.08
2022-08-25T01:33:14.065Z,16.10
2022-08-25T01:34:14.028Z,16.10
2022-08-25T01:35:14.047Z,16.12
2022-08-25T01:36:13.996Z,16.13
2022-08-25T01:37:13.993Z,16.15
2022-08-25T01:38:13.991Z,16.13
2022-08-25T01:39:13.992Z,16.15
2022-08-25T01:40:14.005Z,16.15
2022-08-25T01:41:13.966Z,16.15
2022-08-25T01:42:13.935Z,16.13
2022-08-25T01:43:13.959Z,16.12
2022-08-25T01:44:16.126Z,16.12
2022-08-25T01:45:13.904Z,16.10
2022-08-25T01:46:13.962Z,16.12
2022-08-25T01:47:13.898Z,16.08
2022-08-25T01:48:13.876Z,16.08
2022-08-25T01:49:13.888Z,16.08
2022-08-25T01:50:13.875Z,16.10
2022-08-25T01:51:13.841Z,16.10
2022-08-25T01:52:13.827Z,16.08
2022-08-25T01:53:13.804Z,16.02
2022-08-25T01:54:13.837Z,16.02
2022-08-25T01:55:13.814Z,16.01
2022-08-25T01:56:13.804Z,16.01
2022-08-25T01:57:13.769Z,16.01
2022-08-25T01:58:13.770Z,16.02
2022-08-25T01:59:13.766Z,15.97
2022-08-25T02:00:13.772Z,15.92
2022-08-25T02:01:13.838Z,15.92
2022-08-25T02:02:13.770Z,15.91
2022-08-25T02:03:15.775Z,15.90
2022-08-25T02:04:13.745Z,15.91
2022-08-25T02:05:13.688Z,15.90
2022-08-25T02:06:13.683Z,15.90
2022-08-25T02:07:13.694Z,15.91
2022-08-25T02:08:13.673Z,15.91
2022-08-25T02:09:13.648Z,15.92
2022-08-25T02:10:13.677Z,15.92
2022-08-25T02:11:13.641Z,15.94
2022-08-25T02:12:13.637Z,15.95
2022-08-25T02:13:13.600Z,15.97
2022-08-25T02:14:13.618Z,15.92
2022-08-25T02:15:13.598Z,15.92
2022-08-25T02:16:13.634Z,15.88
2022-08-25T02:17:13.575Z,15.91
2022-08-25T02:18:13.609Z,15.90
2022-08-25T02:19:13.549Z,15.88
2022-08-25T02:20:13.542Z,15.86
2022-08-25T02:21:13.567Z,15.84
2022-08-25T02:22:13.519Z,15.82
2022-08-25T02:23:13.509Z,15.77
2022-08-25T02:24:13.509Z,15.76
2022-08-25T02:25:13.519Z,15.75
2022-08-25T02:26:13.486Z,15.73
2022-08-25T02:27:13.466Z,15.72
2022-08-25T02:28:13.507Z,15.70
2022-08-25T02:29:13.431Z,15.68
2022-08-25T02:30:13.430Z,15.67
2022-08-25T02:31:13.482Z,15.65
2022-08-25T02:32:13.427Z,15.65
2022-08-25T02:33:13.401Z,15.61
2022-08-25T02:34:13.414Z,15.61
2022-08-25T02:35:13.378Z,15.59
2022-08-25T02:36:13.408Z,15.59
2022-08-25T02:37:13.356Z,15.59
2022-08-25T02:38:13.366Z,15.62
2022-08-25T02:39:13.335Z,15.64
2022-08-25T02:40:13.424Z,15.68
2022-08-25T02:41:13.309Z,15.68
2022-08-25T02:42:13.326Z,15.68
2022-08-25T02:43:13.283Z,15.70
2022-08-25T02:44:13.300Z,15.65
2022-08-25T02:45:13.277Z,15.62
2022-08-25T02:46:13.343Z,15.59
2022-08-25T02:47:13.255Z,15.55
2022-08-25T02:48:13.260Z,15.54
2022-08-25T02:49:13.244Z,15.51
2022-08-25T02:50:13.252Z,15.49
2022-08-25T02:51:13.228Z,15.47
2022-08-25T02:52:13.216Z,15.44
2022-08-25T02:53:13.176Z,15.43
2022-08-25T02:54:13.200Z,15.39
2022-08-25T02:55:13.182Z,15.37
2022-08-25T02:56:13.159Z,15.37
2022-08-25T02:57:13.144Z,15.37
2022-08-25T02:58:13.145Z,15.35
2022-08-25T02:59:13.125Z,15.33
2022-08-25T03:00:13.132Z,15.28
2022-08-25T03:01:13.188Z,15.25
2022-08-25T03:02:13.109Z,15.22
2022-08-25T03:03:13.087Z,15.21
2022-08-25T03:04:13.083Z,15.21
2022-08-25T03:05:13.178Z,15.21
2022-08-25T03:06:13.096Z,15.21
2022-08-25T03:07:13.051Z,15.19
2022-08-25T03:08:13.072Z,15.22
2022-08-25T03:09:13.035Z,15.22
2022-08-25T03:10:13.025Z,15.22
2022-08-25T03:11:13.032Z,15.24
2022-08-25T03:12:13.008Z,15.25
2022-08-25T03:13:12.980Z,15.25
2022-08-25T03:14:12.973Z,15.25
2022-08-25T03:15:13.337Z,15.27
2022-08-25T03:16:13.041Z,15.25
2022-08-25T03:17:12.961Z,15.25
2022-08-25T03:18:13.978Z,15.24
2022-08-25T03:19:12.971Z,15.25
2022-08-25T03:20:12.906Z,15.24
2022-08-25T03:21:12.932Z,15.24
2022-08-25T03:22:12.889Z,15.22
2022-08-25T03:23:12.885Z,15.19
2022-08-25T03:24:12.867Z,15.19
2022-08-25T03:25:12.902Z,15.17
2022-08-25T03:26:12.876Z,15.17
2022-08-25T03:27:12.824Z,15.14
2022-08-25T03:28:12.832Z,15.11
2022-08-25T03:29:12.808Z,15.14
2022-08-25T03:30:12.833Z,15.11
2022-08-25T03:31:12.815Z,15.09
2022-08-25T03:32:12.862Z,15.07
2022-08-25T03:33:12.777Z,15.09
2022-08-25T03:34:12.779Z,15.06
2022-08-25T03:35:12.757Z,15.07
2022-08-25T03:36:12.769Z,15.06
2022-08-25T03:37:12.746Z,15.04
2022-08-25T03:38:12.731Z,15.06
2022-08-25T03:39:12.719Z,15.04
2022-08-25T03:40:15.362Z,15.04
2022-08-25T03:41:12.698Z,15.04
2022-08-25T03:42:12.717Z,15.04
2022-08-25T03:43:12.675Z,15.04
2022-08-25T03:44:12.672Z,15.04
2022-08-25T03:45:12.652Z,15.04
2022-08-25T03:46:12.702Z,15.03
2022-08-25T03:47:12.663Z,15.03
2022-08-25T03:48:12.608Z,15.03
2022-08-25T03:49:12.613Z,15.02
2022-08-25T03:50:12.601Z,15.00
2022-08-25T03:51:12.530Z,15.00
2022-08-25T03:52:12.583Z,15.00
2022-08-25T03:53:12.549Z,15.00
2022-08-25T03:54:12.521Z,14.97
2022-08-25T03:55:12.502Z,14.99
2022-08-25T03:56:12.478Z,15.00
2022-08-25T03:57:12.464Z,15.02
2022-08-25T03:58:12.486Z,14.99
2022-08-25T03:59:12.462Z,14.97
2022-08-25T04:00:12.452Z,14.97
2022-08-25T04:01:12.453Z,14.97
2022-08-25T04:02:12.459Z,14.99
2022-08-25T04:03:12.406Z,14.99
2022-08-25T04:04:12.393Z,14.99
2022-08-25T04:05:12.417Z,15.00
2022-08-25T04:06:12.378Z,15.03
2022-08-25T04:07:12.389Z,15.03
2022-08-25T04:08:12.353Z,15.04
2022-08-25T04:09:12.358Z,15.04
2022-08-25T04:10:12.350Z,15.04
2022-08-25T04:11:12.347Z,15.04
2022-08-25T04:12:12.305Z,15.02
2022-08-25T04:13:12.321Z,15.02
2022-08-25T04:14:16.509Z,15.03
2022-08-25T04:15:12.314Z,15.02
2022-08-25T04:16:12.321Z,15.03
2022-08-25T04:17:12.251Z,15.04
2022-08-25T04:18:12.264Z,15.04
2022-08-25T04:19:12.243Z,15.04
2022-08-25T04:20:14.190Z,15.03
2022-08-25T04:21:12.223Z,15.06
2022-08-25T04:22:13.322Z,15.07
2022-08-25T04:23:12.216Z,15.06
2022-08-25T04:24:12.199Z,15.04
2022-08-25T04:25:12.196Z,15.07
2022-08-25T04:26:12.182Z,15.09
2022-08-25T04:27:12.152Z,15.09
2022-08-25T04:28:12.166Z,15.11
2022-08-25T04:29:12.128Z,15.14
2022-08-25T04:30:12.176Z,15.15
2022-08-25T04:31:12.121Z,15.17
2022-08-25T04:32:12.159Z,15.17
2022-08-25T04:33:12.109Z,15.17
2022-08-25T04:34:29.297Z,15.15
2022-08-25T04:35:12.071Z,15.17
2022-08-25T04:36:12.577Z,15.17
2022-08-25T04:37:12.052Z,15.19
2022-08-25T04:38:12.043Z,15.19
2022-08-25T04:39:12.019Z,15.22
2022-08-25T04:40:12.080Z,15.22
2022-08-25T04:41:12.021Z,15.22
2022-08-25T04:42:12.019Z,15.21
2022-08-25T04:43:12.012Z,15.24
2022-08-25T04:44:11.981Z,15.25
2022-08-25T04:45:12.045Z,15.27
2022-08-25T04:46:12.023Z,15.25
2022-08-25T04:47:11.987Z,15.27
2022-08-25T04:48:11.949Z,15.24
2022-08-25T04:49:11.924Z,15.25
2022-08-25T04:50:11.928Z,15.25
2022-08-25T04:51:11.955Z,15.24
2022-08-25T04:52:12.967Z,15.25
2022-08-25T04:53:11.889Z,15.25
2022-08-25T04:54:11.875Z,15.28
2022-08-25T04:55:11.857Z,15.31
2022-08-25T04:56:11.861Z,15.29
2022-08-25T04:57:11.861Z,15.31
2022-08-25T04:58:14.562Z,15.36
2022-08-25T04:59:11.845Z,15.37
2022-08-25T05:00:11.834Z,15.39
2022-08-25T05:01:11.865Z,15.40
2022-08-25T05:02:11.812Z,15.40
2022-08-25T05:03:11.795Z,15.42
2022-08-25T05:04:27.604Z,15.44
2022-08-25T05:05:11.779Z,15.44
2022-08-25T05:06:15.697Z,15.47
2022-08-25T05:07:11.736Z,15.49
2022-08-25T05:08:11.802Z,15.52
2022-08-25T05:09:11.721Z,15.54
2022-08-25T05:10:11.717Z,15.57
2022-08-25T05:11:11.696Z,15.58
2022-08-25T05:12:11.700Z,15.61
2022-08-25T05:13:11.687Z,15.64
2022-08-25T05:14:11.706Z,15.67
2022-08-25T05:15:11.657Z,15.67
2022-08-25T05:16:11.762Z,15.70
2022-08-25T05:17:11.628Z,15.72
2022-08-25T05:18:11.630Z,15.73
2022-08-25T05:19:11.626Z,15.72
2022-08-25T05:20:11.604Z,15.72
2022-08-25T05:21:11.596Z,15.75
2022-08-25T05:22:11.599Z,15.76
2022-08-25T05:23:11.597Z,15.79
2022-08-25T05:24:11.577Z,15.79
2022-08-25T05:25:11.548Z,15.83
2022-08-25T05:26:11.567Z,15.86
2022-08-25T05:27:11.538Z,15.91
2022-08-25T05:28:11.553Z,15.90
2022-08-25T05:29:11.533Z,15.95
2022-08-25T05:30:11.513Z,15.95
2022-08-25T05:31:11.590Z,16.01
2022-08-25T05:32:11.545Z,16.02
2022-08-25T05:33:11.467Z,16.05
2022-08-25T05:34:11.477Z,16.12
2022-08-25T05:35:11.454Z,16.15
2022-08-25T05:36:11.448Z,16.17
2022-08-25T05:37:12.261Z,16.17
2022-08-25T05:38:15.393Z,16.24
2022-08-25T05:39:11.430Z,16.29
2022-08-25T05:40:11.482Z,16.31
2022-08-25T05:41:11.394Z,16.36
2022-08-25T05:42:11.385Z,16.41
2022-08-25T05:43:11.389Z,16.43
2022-08-25T05:44:11.375Z,16.47
2022-08-25T05:45:14.849Z,16.53
2022-08-25T05:46:11.408Z,16.57
2022-08-25T05:47:11.366Z,16.65
2022-08-25T05:48:11.328Z,16.72
2022-08-25T05:49:11.305Z,16.78
2022-08-25T05:50:11.338Z,16.84
2022-08-25T05:51:11.286Z,16.93
2022-08-25T05:52:14.307Z,17.01
2022-08-25T05:53:11.276Z,17.08
2022-08-25T05:54:11.267Z,17.14
2022-08-25T05:55:11.238Z,17.24
2022-08-25T05:56:11.271Z,17.34
2022-08-25T05:57:11.228Z,17.42
2022-08-25T05:58:11.250Z,17.51
2022-08-25T05:59:11.211Z,17.60
2022-08-25T06:00:11.228Z,17.65
2022-08-25T06:01:11.212Z,17.71
2022-08-25T06:02:11.160Z,17.78
2022-08-25T06:03:11.240Z,17.82
2022-08-25T06:04:11.161Z,17.85
2022-08-25T06:05:11.161Z,17.90
2022-08-25T06:06:11.131Z,17.97
2022-08-25T06:07:11.145Z,18.05
2022-08-25T06:08:11.112Z,18.08
2022-08-25T06:09:11.101Z,18.16
2022-08-25T06:10:11.100Z,18.19
2022-08-25T06:11:11.089Z,18.25
2022-08-25T06:12:11.102Z,18.33
2022-08-25T06:13:11.114Z,18.37
2022-08-25T06:14:11.064Z,18.41
2022-08-25T06:15:11.077Z,18.44
2022-08-25T06:16:11.092Z,18.50
2022-08-25T06:17:11.031Z,18.53
2022-08-25T06:18:11.005Z,18.55
2022-08-25T06:19:11.073Z,18.62
2022-08-25T06:20:10.989Z,18.70
2022-08-25T06:21:10.984Z,18.74
2022-08-25T06:22:10.983Z,18.77
2022-08-25T06:23:10.947Z,18.80
2022-08-25T06:24:14.833Z,18.83
2022-08-25T06:25:10.941Z,18.88
2022-08-25T06:26:10.931Z,18.88
2022-08-25T06:27:10.933Z,18.92
2022-08-25T06:28:10.957Z,18.98
2022-08-25T06:29:10.922Z,19.00
2022-08-25T06:30:10.926Z,19.07
2022-08-25T06:31:10.916Z,19.11
2022-08-25T06:32:10.848Z,19.14
2022-08-25T06:33:10.860Z,19.18
2022-08-25T06:34:10.863Z,19.22
2022-08-25T06:35:10.859Z,19.27
2022-08-25T06:36:10.877Z,19.31
2022-08-25T06:37:10.818Z,19.37
2022-08-25T06:38:10.803Z,19.45
2022-08-25T06:39:10.810Z,19.48
2022-08-25T06:40:10.837Z,19.51
2022-08-25T06:41:10.776Z,19.55
2022-08-25T06:42:10.761Z,19.58
2022-08-25T06:43:10.763Z,19.64
2022-08-25T06:44:10.754Z,19.73
2022-08-25T06:45:10.760Z,19.79
2022-08-25T06:46:10.725Z,19.85
2022-08-25T06:47:10.818Z,19.94
2022-08-25T06:48:10.688Z,19.99
2022-08-25T06:49:10.692Z,20.07
2022-08-25T06:50:10.699Z,20.13
2022-08-25T06:51:10.679Z,20.21
2022-08-25T06:52:10.662Z,20.25
2022-08-25T06:53:10.688Z,20.31
2022-08-25T06:54:10.629Z,20.34
2022-08-25T06:55:10.653Z,20.41
2022-08-25T06:56:10.636Z,20.55
2022-08-25T06:57:10.612Z,20.65
2022-08-25T06:58:11.331Z,20.77
2022-08-25T06:59:10.609Z,20.82
2022-08-25T07:00:10.602Z,20.90
2022-08-25T07:01:15.687Z,20.99
2022-08-25T07:02:10.661Z,21.07
2022-08-25T07:03:10.614Z,21.15
2022-08-25T07:04:12.852Z,21.27
2022-08-25T07:05:13.450Z,21.39
2022-08-25T07:06:10.528Z,21.50
2022-08-25T07:07:10.511Z,21.58
2022-08-25T07:08:10.508Z,21.72
2022-08-25T07:09:10.492Z,21.83
2022-08-25T07:10:10.471Z,21.91
2022-08-25T07:11:16.395Z,21.99
2022-08-25T07:12:10.514Z,22.08
2022-08-25T07:13:10.461Z,22.18
2022-08-25T07:14:10.420Z,22.28
2022-08-25T07:15:19.846Z,22.39
2022-08-25T07:16:10.500Z,22.60
2022-08-25T07:17:12.035Z,22.78
2022-08-25T07:18:10.385Z,22.93
2022-08-25T07:19:10.388Z,23.05
2022-08-25T07:20:10.381Z,23.20
2022-08-25T07:21:10.422Z,23.28
2022-08-25T07:22:10.381Z,23.41
2022-08-25T07:23:10.357Z,23.56
2022-08-25T07:24:10.321Z,23.69
2022-08-25T07:25:10.328Z,23.86
2022-08-25T07:26:33.655Z,23.99
2022-08-25T07:27:10.340Z,24.14
2022-08-25T07:28:10.297Z,24.23
2022-08-25T07:29:10.308Z,24.29
2022-08-25T07:30:11.316Z,24.40
2022-08-25T07:31:10.305Z,24.48
2022-08-25T07:32:10.253Z,24.55
2022-08-25T07:33:10.467Z,24.63
2022-08-25T07:34:10.219Z,24.69
2022-08-25T07:35:10.220Z,24.73
2022-08-25T07:36:10.213Z,24.78
2022-08-25T07:37:10.246Z,24.86
2022-08-25T07:38:13.038Z,24.93
2022-08-25T07:39:10.181Z,24.95
2022-08-25T07:40:10.211Z,25.01
2022-08-25T07:41:10.181Z,25.08
2022-08-25T07:42:11.991Z,25.14
2022-08-25T07:43:10.192Z,25.25
2022-08-25T07:44:10.128Z,25.28
2022-08-25T07:45:10.117Z,25.33
2022-08-25T07:46:10.146Z,25.43
2022-08-25T07:47:10.123Z,25.47
2022-08-25T07:48:10.077Z,25.53
2022-08-25T07:49:16.598Z,25.55
2022-08-25T07:50:10.079Z,25.60
2022-08-25T07:51:10.072Z,25.68
2022-08-25T07:52:10.054Z,25.75
2022-08-25T07:53:10.414Z,25.77
2022-08-25T07:54:10.025Z,25.80
2022-08-25T07:55:11.082Z,25.87
2022-08-25T07:56:09.990Z,25.91
2022-08-25T07:57:10.055Z,26.00
2022-08-25T07:58:10.053Z,26.02
2022-08-25T07:59:09.971Z,26.13
2022-08-25T08:00:09.976Z,26.16
2022-08-25T08:01:10.030Z,26.25
2022-08-25T08:02:18.270Z,26.29
2022-08-25T08:03:12.808Z,26.43
2022-08-25T08:04:09.989Z,26.45
2022-08-25T08:05:09.927Z,26.52
2022-08-25T08:06:09.943Z,26.53
2022-08-25T08:07:12.064Z,26.59
2022-08-25T08:08:09.967Z,26.77
2022-08-25T08:09:09.895Z,26.77
2022-08-25T08:10:33.294Z,26.85
2022-08-25T08:11:09.881Z,27.00
2022-08-25T08:12:09.908Z,27.10
2022-08-25T08:13:10.164Z,27.14
2022-08-25T08:14:09.834Z,27.20
2022-08-25T08:15:10.373Z,27.32
2022-08-25T08:16:09.838Z,27.44
2022-08-25T08:17:09.815Z,27.55
2022-08-25T08:18:09.773Z,27.63
2022-08-25T08:19:09.842Z,27.74
2022-08-25T08:20:09.795Z,27.90
2022-08-25T08:21:09.786Z,28.08
2022-08-25T08:22:09.798Z,28.29
2022-08-25T08:23:09.778Z,28.44
2022-08-25T08:24:19.526Z,28.47
2022-08-25T08:25:10.604Z,28.54
2022-08-25T08:26:09.746Z,28.51
2022-08-25T08:27:09.774Z,28.67
2022-08-25T08:28:10.001Z,28.78
2022-08-25T08:29:09.712Z,28.89
2022-08-25T08:30:09.682Z,28.96
2022-08-25T08:31:10.737Z,29.05
2022-08-25T08:32:09.665Z,29.07
2022-08-25T08:33:11.771Z,29.07
2022-08-25T08:34:09.649Z,29.12
2022-08-25T08:35:09.631Z,29.14
2022-08-25T08:36:09.705Z,29.10
2022-08-25T08:37:10.510Z,29.10
2022-08-25T08:38:14.531Z,29.12
2022-08-25T08:39:09.643Z,29.04
2022-08-25T08:40:09.630Z,28.98
2022-08-25T08:41:09.646Z,28.93
2022-08-25T08:42:11.370Z,28.96
2022-08-25T08:43:18.322Z,29.04
2022-08-25T08:44:09.536Z,29.05
2022-08-25T08:45:09.887Z,28.98
2022-08-25T08:46:09.555Z,29.04
2022-08-25T08:47:09.711Z,29.07
2022-08-25T08:48:09.527Z,29.17
2022-08-25T08:49:09.504Z,29.26
2022-08-25T08:50:09.471Z,29.31
2022-08-25T08:51:09.809Z,29.36
2022-08-25T08:52:09.452Z,29.44
2022-08-25T08:53:09.444Z,29.50
2022-08-25T08:54:15.225Z,29.59
2022-08-25T08:55:09.606Z,29.65
2022-08-25T08:56:11.695Z,29.63
2022-08-25T08:57:09.408Z,29.56
2022-08-25T08:58:09.489Z,29.54
2022-08-25T08:59:09.413Z,29.51
2022-08-25T09:00:09.379Z,29.45
2022-08-25T09:01:09.357Z,29.45
2022-08-25T09:02:13.675Z,29.49
2022-08-25T09:03:09.363Z,29.50
2022-08-25T09:04:09.341Z,29.56
2022-08-25T09:05:09.320Z,29.59
2022-08-25T09:06:09.330Z,29.61
2022-08-25T09:07:09.343Z,29.69
2022-08-25T09:08:09.431Z,29.71
2022-08-25T09:09:09.289Z,29.71
2022-08-25T09:10:09.308Z,29.75
2022-08-25T09:11:10.172Z,29.71
2022-08-25T09:12:09.272Z,29.71
2022-08-25T09:13:12.273Z,29.73
2022-08-25T09:14:09.256Z,29.73
2022-08-25T09:15:12.807Z,29.76
2022-08-25T09:16:09.231Z,29.81
2022-08-25T09:17:09.270Z,29.88
2022-08-25T09:18:09.636Z,29.90
2022-08-25T09:19:09.211Z,29.91
2022-08-25T09:20:18.803Z,29.88
2022-08-25T09:21:09.237Z,29.82
2022-08-25T09:22:33.598Z,29.79
2022-08-25T09:23:09.180Z,29.84
2022-08-25T09:24:09.115Z,29.87
2022-08-25T09:25:09.172Z,29.94
2022-08-25T09:26:09.161Z,29.94
2022-08-25T09:27:09.165Z,30.02
2022-08-25T09:28:09.160Z,30.08
2022-08-25T09:29:16.413Z,30.12
2022-08-25T09:30:10.047Z,30.15
2022-08-25T09:31:09.208Z,30.16
2022-08-25T09:32:09.200Z,30.18
2022-08-25T09:33:09.076Z,30.19
2022-08-25T09:34:09.034Z,30.15
2022-08-25T09:35:09.029Z,30.21
2022-08-25T09:36:09.200Z,30.23
2022-08-25T09:37:09.038Z,30.30
2022-08-25T09:38:09.180Z,30.37
2022-08-25T09:39:10.061Z,30.43
2022-08-25T09:40:09.088Z,30.44
2022-08-25T09:41:08.990Z,30.53
2022-08-25T09:42:09.119Z,30.55
2022-08-25T09:43:09.000Z,30.55
2022-08-25T09:44:08.968Z,30.57
2022-08-25T09:45:08.940Z,30.47
2022-08-25T09:46:08.961Z,30.43
2022-08-25T09:47:08.920Z,30.39
2022-08-25T09:48:08.888Z,30.32
2022-08-25T09:49:08.928Z,30.32
2022-08-25T09:50:08.933Z,30.34
2022-08-25T09:51:08.927Z,30.32
2022-08-25T09:52:08.857Z,30.25
2022-08-25T09:53:17.055Z,30.18
2022-08-25T09:54:10.704Z,30.21
2022-08-25T09:55:08.853Z,30.24
2022-08-25T09:56:08.832Z,30.28
2022-08-25T09:57:08.939Z,30.35
2022-08-25T09:58:09.622Z,30.48
2022-08-25T09:59:08.822Z,30.54
2022-08-25T10:00:08.776Z,30.57
2022-08-25T10:01:09.188Z,30.59
2022-08-25T10:02:09.083Z,30.68
2022-08-25T10:03:09.326Z,30.78
2022-08-25T10:04:19.050Z,30.88
2022-08-25T10:05:08.910Z,30.84
2022-08-25T10:06:13.143Z,30.70
2022-08-25T10:07:09.548Z,30.63
2022-08-25T10:08:08.894Z,30.63
2022-08-25T10:09:08.877Z,30.59
2022-08-25T10:10:10.028Z,30.63
2022-08-25T10:11:08.940Z,30.80
2022-08-25T10:12:08.729Z,30.88
2022-08-25T10:13:08.995Z,31.02
2022-08-25T10:14:08.653Z,31.07
2022-08-25T10:15:08.813Z,31.07
2022-08-25T10:16:20.442Z,31.17
2022-08-25T10:17:12.486Z,31.22
2022-08-25T10:18:08.641Z,31.18
2022-08-25T10:19:08.994Z,31.10
2022-08-25T10:20:08.586Z,31.06
2022-08-25T10:21:08.630Z,31.05
2022-08-25T10:22:08.654Z,30.99
2022-08-25T10:23:08.531Z,30.97
2022-08-25T10:24:08.562Z,30.99
2022-08-25T10:25:08.536Z,31.05
2022-08-25T10:26:08.574Z,31.05
2022-08-25T10:27:08.486Z,31.10
2022-08-25T10:28:08.504Z,31.20
2022-08-25T10:29:08.540Z,31.24
2022-08-25T10:30:08.529Z,31.31
2022-08-25T10:31:09.667Z,31.36
2022-08-25T10:32:12.018Z,31.39
2022-08-25T10:33:08.695Z,31.46
2022-08-25T10:34:08.449Z,31.49
2022-08-25T10:35:08.458Z,31.52
2022-08-25T10:36:08.445Z,31.47
2022-08-25T10:37:09.329Z,31.46
2022-08-25T10:38:08.439Z,31.46
2022-08-25T10:39:34.538Z,31.51
2022-08-25T10:40:08.445Z,31.54
2022-08-25T10:41:08.416Z,31.58
2022-08-25T10:42:08.367Z,31.61
2022-08-25T10:43:08.747Z,31.65
2022-08-25T10:44:08.401Z,31.61
2022-08-25T10:45:09.924Z,31.64
2022-08-25T10:46:08.588Z,31.71
2022-08-25T10:47:08.302Z,31.74
2022-08-25T10:48:08.459Z,31.84
2022-08-25T10:49:08.292Z,31.80
2022-08-25T10:50:08.298Z,31.84
2022-08-25T10:51:08.293Z,31.92
2022-08-25T10:52:08.336Z,32.07
2022-08-25T10:53:09.148Z,32.21
2022-08-25T10:54:08.253Z,32.31
2022-08-25T10:55:08.230Z,32.36
2022-08-25T10:56:08.235Z,32.41
2022-08-25T10:57:08.331Z,32.38
2022-08-25T10:58:08.202Z,32.19
2022-08-25T10:59:09.142Z,32.15
2022-08-25T11:00:08.193Z,32.09
2022-08-25T11:01:08.262Z,32.00
2022-08-25T11:02:08.270Z,32.00
2022-08-25T11:03:08.348Z,32.04
2022-08-25T11:04:08.247Z,32.09
2022-08-25T11:05:08.171Z,32.09
2022-08-25T11:06:08.142Z,32.14
2022-08-25T11:07:08.170Z,32.09
2022-08-25T11:08:08.109Z,32.04
2022-08-25T11:09:08.093Z,31.97
2022-08-25T11:10:08.103Z,31.92
2022-08-25T11:11:08.083Z,31.90
2022-08-25T11:12:08.051Z,31.78
2022-08-25T11:13:08.065Z,31.64
2022-08-25T11:14:09.395Z,31.66
2022-08-25T11:15:08.465Z,31.74
2022-08-25T11:16:23.404Z,31.97
2022-08-25T11:17:08.077Z,32.12
2022-08-25T11:18:14.406Z,32.23
2022-08-25T11:19:07.971Z,32.34
2022-08-25T11:20:07.985Z,32.43
2022-08-25T11:21:07.978Z,32.46
2022-08-25T11:22:07.973Z,32.45
2022-08-25T11:23:07.934Z,32.41
2022-08-25T11:24:07.987Z,32.33
2022-08-25T11:25:07.908Z,32.26
2022-08-25T11:26:07.992Z,32.21
2022-08-25T11:27:07.920Z,32.21
2022-08-25T11:28:07.989Z,32.27
2022-08-25T11:29:11.550Z,32.31
2022-08-25T11:30:07.880Z,32.31
2022-08-25T11:31:07.907Z,32.23
2022-08-25T11:32:07.873Z,32.19
2022-08-25T11:33:08.252Z,32.21
2022-08-25T11:34:07.878Z,32.23
2022-08-25T11:35:07.819Z,32.31
2022-08-25T11:36:07.814Z,32.48
2022-08-25T11:37:07.813Z,32.64
2022-08-25T11:38:08.090Z,32.78
2022-08-25T11:39:07.812Z,32.86
2022-08-25T11:40:08.768Z,32.97
2022-08-25T11:41:11.215Z,33.08
2022-08-25T11:42:07.820Z,33.15
2022-08-25T11:43:08.200Z,33.20
2022-08-25T11:44:07.738Z,33.22
2022-08-25T11:45:07.758Z,33.19
2022-08-25T11:46:07.750Z,33.20
2022-08-25T11:47:09.037Z,33.15
2022-08-25T11:48:07.854Z,33.14
2022-08-25T11:49:07.690Z,33.14
2022-08-25T11:50:07.682Z,33.12
2022-08-25T11:51:07.706Z,33.07
2022-08-25T11:52:07.671Z,32.83
2022-08-25T11:53:11.249Z,32.70
2022-08-25T11:54:07.654Z,32.70
2022-08-25T11:55:07.681Z,32.71
2022-08-25T11:56:07.686Z,32.73
2022-08-25T11:57:07.622Z,32.80
2022-08-25T11:58:07.941Z,32.82
2022-08-25T11:59:07.613Z,32.86
2022-08-25T12:00:07.658Z,32.92
2022-08-25T12:01:07.562Z,32.95
2022-08-25T12:02:07.585Z,32.89
2022-08-25T12:03:07.552Z,32.70
2022-08-25T12:04:07.580Z,32.45
2022-08-25T12:05:07.658Z,32.37
2022-08-25T12:06:07.544Z,32.31
2022-08-25T12:07:07.512Z,32.34
2022-08-25T12:08:07.527Z,32.34
2022-08-25T12:09:07.487Z,32.40
2022-08-25T12:10:07.522Z,32.46
2022-08-25T12:11:11.059Z,32.49
2022-08-25T12:12:07.456Z,32.49
2022-08-25T12:13:08.122Z,32.59
2022-08-25T12:14:07.451Z,32.71
2022-08-25T12:15:07.451Z,32.74
2022-08-25T12:16:07.456Z,32.75
2022-08-25T12:17:07.448Z,32.73
2022-08-25T12:18:07.591Z,32.70
2022-08-25T12:19:07.400Z,32.70
2022-08-25T12:20:07.433Z,32.73
2022-08-25T12:21:07.465Z,32.83
2022-08-25T12:22:07.395Z,32.85
2022-08-25T12:23:07.420Z,32.83
2022-08-25T12:24:07.357Z,32.82
2022-08-25T12:25:07.389Z,32.85
2022-08-25T12:26:07.372Z,32.87
2022-08-25T12:27:07.392Z,32.82
2022-08-25T12:28:09.155Z,32.74
2022-08-25T12:29:07.691Z,32.65
2022-08-25T12:30:07.473Z,32.60
2022-08-25T12:31:07.547Z,32.64
2022-08-25T12:32:09.306Z,32.68
2022-08-25T12:33:07.381Z,32.70
2022-08-25T12:34:07.333Z,32.63
2022-08-25T12:35:07.417Z,32.70
2022-08-25T12:36:07.323Z,32.71
2022-08-25T12:37:07.306Z,32.77
2022-08-25T12:38:07.456Z,32.87
2022-08-25T12:39:07.360Z,33.08
2022-08-25T12:40:07.435Z,33.14
2022-08-25T12:41:07.700Z,33.09
2022-08-25T12:42:07.426Z,33.01
2022-08-25T12:43:07.501Z,32.90
2022-08-25T12:44:07.256Z,32.86
2022-08-25T12:45:07.370Z,32.95
2022-08-25T12:46:07.349Z,33.02
2022-08-25T12:47:07.239Z,33.07
2022-08-25T12:48:07.175Z,32.97
2022-08-25T12:49:07.660Z,32.95
2022-08-25T12:50:07.678Z,32.95
2022-08-25T12:51:07.555Z,33.01
2022-08-25T12:52:07.349Z,33.12